sensor_id;sensor_type;location;lat;lon;timestamp;pressure;altitude;pressure_sealevel;temperature;humidity
50105;BME280;47690;39.202;-77.198;2024-03-08T00:01:18;100302.66;;;16.47;49.33
50105;BME280;47690;39.202;-77.198;2024-03-08T00:03:50;100303.75;;;16.41;49.50
50105;BME280;47690;39.202;-77.198;2024-03-08T00:06:22;100298.78;;;16.35;49.35
50105;BME280;47690;39.202;-77.198;2024-03-08T00:08:54;100310.25;;;16.29;49.42
50105;BME280;47690;39.202;-77.198;2024-03-08T00:11:22;100313.88;;;16.25;49.61
50105;BME280;47690;39.202;-77.198;2024-03-08T00:13:55;100318.38;;;16.20;49.75
50105;BME280;47690;39.202;-77.198;2024-03-08T00:16:24;100328.16;;;16.13;49.86
50105;BME280;47690;39.202;-77.198;2024-03-08T00:19:09;100330.16;;;16.06;49.75
50105;BME280;47690;39.202;-77.198;2024-03-08T00:21:42;100349.56;;;15.96;49.80
50105;BME280;47690;39.202;-77.198;2024-03-08T00:24:11;100364.47;;;15.91;50.05
50105;BME280;47690;39.202;-77.198;2024-03-08T00:26:43;100359.56;;;15.81;50.17
50105;BME280;47690;39.202;-77.198;2024-03-08T00:29:16;100367.66;;;15.74;50.38
50105;BME280;47690;39.202;-77.198;2024-03-08T00:31:46;100371.41;;;15.65;50.55
50105;BME280;47690;39.202;-77.198;2024-03-08T00:34:18;100372.47;;;15.59;50.69
50105;BME280;47690;39.202;-77.198;2024-03-08T00:36:48;100368.31;;;15.53;50.72
50105;BME280;47690;39.202;-77.198;2024-03-08T00:39:19;100369.31;;;15.49;50.73
50105;BME280;47690;39.202;-77.198;2024-03-08T00:41:51;100361.75;;;15.43;50.86
50105;BME280;47690;39.202;-77.198;2024-03-08T00:44:20;100370.50;;;15.39;50.81
50105;BME280;47690;39.202;-77.198;2024-03-08T00:46:50;100370.66;;;15.34;50.86
50105;BME280;47690;39.202;-77.198;2024-03-08T00:49:21;100368.22;;;15.29;50.91
50105;BME280;47690;39.202;-77.198;2024-03-08T00:51:50;100371.84;;;15.25;51.39
50105;BME280;47690;39.202;-77.198;2024-03-08T00:54:20;100377.19;;;15.21;51.09
50105;BME280;47690;39.202;-77.198;2024-03-08T00:56:49;100381.56;;;15.19;51.18
50105;BME280;47690;39.202;-77.198;2024-03-08T00:59:20;100386.84;;;15.15;51.43
50105;BME280;47690;39.202;-77.198;2024-03-08T01:01:49;100387.91;;;15.10;51.26
50105;BME280;47690;39.202;-77.198;2024-03-08T01:04:22;100388.13;;;15.02;51.53
50105;BME280;47690;39.202;-77.198;2024-03-08T01:06:52;100383.09;;;14.97;51.62
50105;BME280;47690;39.202;-77.198;2024-03-08T01:09:22;100390.97;;;14.94;51.58
50105;BME280;47690;39.202;-77.198;2024-03-08T01:11:52;100401.44;;;14.91;51.63
50105;BME280;47690;39.202;-77.198;2024-03-08T01:14:26;100413.69;;;14.86;51.87
50105;BME280;47690;39.202;-77.198;2024-03-08T01:17:07;100413.88;;;14.80;51.94
50105;BME280;47690;39.202;-77.198;2024-03-08T01:19:40;100426.19;;;14.71;52.00
50105;BME280;47690;39.202;-77.198;2024-03-08T01:22:09;100428.97;;;14.65;52.05
50105;BME280;47690;39.202;-77.198;2024-03-08T01:24:40;100429.97;;;14.61;52.25
50105;BME280;47690;39.202;-77.198;2024-03-08T01:27:14;100443.06;;;14.56;52.33
50105;BME280;47690;39.202;-77.198;2024-03-08T01:29:44;100442.28;;;14.53;52.37
50105;BME280;47690;39.202;-77.198;2024-03-08T01:32:16;100445.03;;;14.48;52.44
50105;BME280;47690;39.202;-77.198;2024-03-08T01:35:01;100447.69;;;14.45;52.39
50105;BME280;47690;39.202;-77.198;2024-03-08T01:37:42;100458.19;;;14.40;52.65
50105;BME280;47690;39.202;-77.198;2024-03-08T01:40:11;100457.41;;;14.37;52.71
50105;BME280;47690;39.202;-77.198;2024-03-08T01:42:43;100460.09;;;14.33;52.81
50105;BME280;47690;39.202;-77.198;2024-03-08T01:45:15;100459.28;;;14.31;52.65
50105;BME280;47690;39.202;-77.198;2024-03-08T01:47:44;100470.66;;;14.26;52.72
50105;BME280;47690;39.202;-77.198;2024-03-08T01:50:37;100470.78;;;14.21;52.78
50105;BME280;47690;39.202;-77.198;2024-03-08T01:53:12;100478.69;;;14.16;52.81
50105;BME280;47690;39.202;-77.198;2024-03-08T01:55:45;100469.34;;;14.11;53.09
50105;BME280;47690;39.202;-77.198;2024-03-08T01:58:17;100482.44;;;14.04;52.95
50105;BME280;47690;39.202;-77.198;2024-03-08T02:00:50;100484.31;;;13.98;53.09
50105;BME280;47690;39.202;-77.198;2024-03-08T02:03:23;100484.53;;;13.90;53.19
50105;BME280;47690;39.202;-77.198;2024-03-08T02:05:54;100482.91;;;13.86;53.43
50105;BME280;47690;39.202;-77.198;2024-03-08T02:08:25;100486.50;;;13.80;53.24
50105;BME280;47690;39.202;-77.198;2024-03-08T02:10:57;100496.09;;;13.76;53.32
50105;BME280;47690;39.202;-77.198;2024-03-08T02:13:25;100499.63;;;13.72;53.52
50105;BME280;47690;39.202;-77.198;2024-03-08T02:16:09;100502.28;;;13.69;53.55
50105;BME280;47690;39.202;-77.198;2024-03-08T02:18:44;100505.84;;;13.65;53.71
50105;BME280;47690;39.202;-77.198;2024-03-08T02:21:19;100520.59;;;13.61;53.48
50105;BME280;47690;39.202;-77.198;2024-03-08T02:23:55;100522.44;;;13.56;53.55
50105;BME280;47690;39.202;-77.198;2024-03-08T02:26:27;100532.06;;;13.51;53.81
50105;BME280;47690;39.202;-77.198;2024-03-08T02:29:10;100531.28;;;13.46;53.84
50105;BME280;47690;39.202;-77.198;2024-03-08T02:31:43;100532.28;;;13.38;53.70
50105;BME280;47690;39.202;-77.198;2024-03-08T02:34:15;100540.19;;;13.32;53.94
50105;BME280;47690;39.202;-77.198;2024-03-08T02:36:44;100545.47;;;13.28;54.03
50105;BME280;47690;39.202;-77.198;2024-03-08T02:39:18;100543.81;;;13.25;54.13
50105;BME280;47690;39.202;-77.198;2024-03-08T02:41:48;100560.28;;;13.21;54.28
50105;BME280;47690;39.202;-77.198;2024-03-08T02:44:17;100560.34;;;13.18;54.13
50105;BME280;47690;39.202;-77.198;2024-03-08T02:46:47;100563.84;;;13.15;54.37
50105;BME280;47690;39.202;-77.198;2024-03-08T02:49:19;100567.34;;;13.13;54.36
50105;BME280;47690;39.202;-77.198;2024-03-08T02:51:48;100573.41;;;13.10;54.45
50105;BME280;47690;39.202;-77.198;2024-03-08T02:54:17;100570.94;;;13.05;54.42
50105;BME280;47690;39.202;-77.198;2024-03-08T02:56:46;100576.16;;;13.02;54.55
50105;BME280;47690;39.202;-77.198;2024-03-08T02:59:19;100580.53;;;12.98;54.56
50105;BME280;47690;39.202;-77.198;2024-03-08T03:01:50;100583.22;;;12.94;54.60
50105;BME280;47690;39.202;-77.198;2024-03-08T03:04:21;100585.88;;;12.89;54.32
50105;BME280;47690;39.202;-77.198;2024-03-08T03:06:49;100580.00;;;12.82;54.52
50105;BME280;47690;39.202;-77.198;2024-03-08T03:09:19;100586.13;;;12.77;54.71
50105;BME280;47690;39.202;-77.198;2024-03-08T03:11:54;100591.38;;;12.72;54.67
50105;BME280;47690;39.202;-77.198;2024-03-08T03:14:23;100588.88;;;12.67;54.74
50105;BME280;47690;39.202;-77.198;2024-03-08T03:16:53;100599.31;;;12.61;54.92
50105;BME280;47690;39.202;-77.198;2024-03-08T03:19:22;100597.69;;;12.59;54.73
50105;BME280;47690;39.202;-77.198;2024-03-08T03:21:50;100584.84;;;12.52;54.82
50105;BME280;47690;39.202;-77.198;2024-03-08T03:24:20;100594.41;;;12.49;54.84
50105;BME280;47690;39.202;-77.198;2024-03-08T03:26:54;100589.34;;;12.42;55.08
50105;BME280;47690;39.202;-77.198;2024-03-08T03:29:23;100602.31;;;12.38;55.07
50105;BME280;47690;39.202;-77.198;2024-03-08T03:31:57;100604.94;;;12.36;55.32
50105;BME280;47690;39.202;-77.198;2024-03-08T03:34:39;100601.53;;;12.33;55.42
50105;BME280;47690;39.202;-77.198;2024-03-08T03:37:09;100607.59;;;12.30;55.33
50105;BME280;47690;39.202;-77.198;2024-03-08T03:39:41;100605.09;;;12.27;55.21
50105;BME280;47690;39.202;-77.198;2024-03-08T03:42:22;100609.44;;;12.23;55.28
50105;BME280;47690;39.202;-77.198;2024-03-08T03:44:54;100619.88;;;12.19;55.49
50105;BME280;47690;39.202;-77.198;2024-03-08T03:47:23;100614.75;;;12.14;55.32
50105;BME280;47690;39.202;-77.198;2024-03-08T03:49:53;100617.41;;;12.09;55.56
50105;BME280;47690;39.202;-77.198;2024-03-08T03:52:22;100626.94;;;12.06;55.67
50105;BME280;47690;39.202;-77.198;2024-03-08T03:54:51;100625.25;;;12.01;55.59
50105;BME280;47690;39.202;-77.198;2024-03-08T03:57:21;100629.59;;;11.98;55.78
50105;BME280;47690;39.202;-77.198;2024-03-08T03:59:51;100629.63;;;11.95;55.59
50105;BME280;47690;39.202;-77.198;2024-03-08T04:02:19;100630.59;;;11.89;55.57
50105;BME280;47690;39.202;-77.198;2024-03-08T04:04:49;100637.50;;;11.88;55.52
50105;BME280;47690;39.202;-77.198;2024-03-08T04:07:18;100633.25;;;11.83;55.65
50105;BME280;47690;39.202;-77.198;2024-03-08T04:09:47;100644.50;;;11.79;55.56
50105;BME280;47690;39.202;-77.198;2024-03-08T04:12:18;100640.25;;;11.76;55.85
50105;BME280;47690;39.202;-77.198;2024-03-08T04:14:48;100629.09;;;11.74;55.77
50105;BME280;47690;39.202;-77.198;2024-03-08T04:17:17;100633.44;;;11.69;55.56
50105;BME280;47690;39.202;-77.198;2024-03-08T04:19:47;100636.94;;;11.65;55.55
50105;BME280;47690;39.202;-77.198;2024-03-08T04:22:19;100631.84;;;11.60;55.49
50105;BME280;47690;39.202;-77.198;2024-03-08T04:24:48;100639.63;;;11.55;55.36
50105;BME280;47690;39.202;-77.198;2024-03-08T04:27:17;100641.41;;;11.50;55.53
50105;BME280;47690;39.202;-77.198;2024-03-08T04:29:47;100635.44;;;11.46;55.55
50105;BME280;47690;39.202;-77.198;2024-03-08T04:32:16;100645.81;;;11.43;55.30
50105;BME280;47690;39.202;-77.198;2024-03-08T04:34:48;100644.16;;;11.38;55.45
50105;BME280;47690;39.202;-77.198;2024-03-08T04:37:17;100650.22;;;11.32;55.51
50105;BME280;47690;39.202;-77.198;2024-03-08T04:39:53;100646.88;;;11.27;55.53
50105;BME280;47690;39.202;-77.198;2024-03-08T04:42:22;100652.91;;;11.24;55.51
50105;BME280;47690;39.202;-77.198;2024-03-08T04:44:54;100657.25;;;11.20;55.63
50105;BME280;47690;39.202;-77.198;2024-03-08T04:47:23;100671.91;;;11.17;55.70
50105;BME280;47690;39.202;-77.198;2024-03-08T04:49:58;100672.78;;;11.14;55.71
50105;BME280;47690;39.202;-77.198;2024-03-08T04:52:36;100678.81;;;11.15;55.80
50105;BME280;47690;39.202;-77.198;2024-03-08T04:55:09;100683.97;;;11.12;56.01
50105;BME280;47690;39.202;-77.198;2024-03-08T04:57:49;100679.72;;;11.09;55.87
50105;BME280;47690;39.202;-77.198;2024-03-08T05:00:21;100686.63;;;11.05;55.71
50105;BME280;47690;39.202;-77.198;2024-03-08T05:02:55;100684.09;;;11.02;55.75
50105;BME280;47690;39.202;-77.198;2024-03-08T05:05:27;100690.13;;;10.98;55.90
50105;BME280;47690;39.202;-77.198;2024-03-08T05:07:57;100693.59;;;10.96;55.83
50105;BME280;47690;39.202;-77.198;2024-03-08T05:10:28;100697.91;;;10.92;55.78
50105;BME280;47690;39.202;-77.198;2024-03-08T05:12:56;100692.78;;;10.89;55.88
50105;BME280;47690;39.202;-77.198;2024-03-08T05:15:27;100696.25;;;10.85;55.69
50105;BME280;47690;39.202;-77.198;2024-03-08T05:17:56;100698.03;;;10.79;55.82
50105;BME280;47690;39.202;-77.198;2024-03-08T05:20:29;100697.22;;;10.76;55.99
50105;BME280;47690;39.202;-77.198;2024-03-08T05:23:10;100708.41;;;10.73;56.07
50105;BME280;47690;39.202;-77.198;2024-03-08T05:25:40;100701.53;;;10.71;55.98
50105;BME280;47690;39.202;-77.198;2024-03-08T05:28:12;100706.75;;;10.68;56.11
50105;BME280;47690;39.202;-77.198;2024-03-08T05:30:44;100699.03;;;10.63;56.15
50105;BME280;47690;39.202;-77.198;2024-03-08T05:33:15;100705.91;;;10.61;56.03
50105;BME280;47690;39.202;-77.198;2024-03-08T05:35:47;100712.81;;;10.60;56.22
50105;BME280;47690;39.202;-77.198;2024-03-08T05:38:19;100710.22;;;10.59;56.61
50105;BME280;47690;39.202;-77.198;2024-03-08T05:40:49;100723.97;;;10.59;56.51
50105;BME280;47690;39.202;-77.198;2024-03-08T05:43:20;100710.22;;;10.57;56.58
50105;BME280;47690;39.202;-77.198;2024-03-08T05:45:50;100719.69;;;10.57;56.22
50105;BME280;47690;39.202;-77.198;2024-03-08T05:48:24;100707.69;;;10.52;56.12
50105;BME280;47690;39.202;-77.198;2024-03-08T05:50:54;100708.59;;;10.45;56.06
50105;BME280;47690;39.202;-77.198;2024-03-08T05:53:29;100707.78;;;10.38;56.05
50105;BME280;47690;39.202;-77.198;2024-03-08T05:56:11;100714.66;;;10.35;55.78
50105;BME280;47690;39.202;-77.198;2024-03-08T05:58:43;100718.13;;;10.31;56.28
50105;BME280;47690;39.202;-77.198;2024-03-08T06:01:15;100717.28;;;10.29;56.05
50105;BME280;47690;39.202;-77.198;2024-03-08T06:03:43;100724.13;;;10.28;56.25
50105;BME280;47690;39.202;-77.198;2024-03-08T06:06:17;100728.44;;;10.28;56.22
50105;BME280;47690;39.202;-77.198;2024-03-08T06:08:48;100731.88;;;10.25;56.34
50105;BME280;47690;39.202;-77.198;2024-03-08T06:11:20;100730.19;;;10.22;56.48
50105;BME280;47690;39.202;-77.198;2024-03-08T06:13:49;100732.75;;;10.22;56.36
50105;BME280;47690;39.202;-77.198;2024-03-08T06:16:18;100733.63;;;10.21;56.57
50105;BME280;47690;39.202;-77.198;2024-03-08T06:18:47;100743.91;;;10.20;57.06
50105;BME280;47690;39.202;-77.198;2024-03-08T06:21:20;100745.66;;;10.19;56.88
50105;BME280;47690;39.202;-77.198;2024-03-08T06:23:52;100752.50;;;10.19;57.17
50105;BME280;47690;39.202;-77.198;2024-03-08T06:26:28;100758.50;;;10.22;56.93
50105;BME280;47690;39.202;-77.198;2024-03-08T06:29:08;100758.47;;;10.27;56.96
50105;BME280;47690;39.202;-77.198;2024-03-08T06:31:40;100753.31;;;10.29;57.25
50105;BME280;47690;39.202;-77.198;2024-03-08T06:34:14;100759.31;;;10.34;57.38
50105;BME280;47690;39.202;-77.198;2024-03-08T06:36:46;100763.56;;;10.38;57.27
50105;BME280;47690;39.202;-77.198;2024-03-08T06:39:17;100767.88;;;10.37;56.90
50105;BME280;47690;39.202;-77.198;2024-03-08T06:41:47;100755.84;;;10.36;56.75
50105;BME280;47690;39.202;-77.198;2024-03-08T06:44:15;100763.59;;;10.35;57.19
50105;BME280;47690;39.202;-77.198;2024-03-08T06:46:46;100771.28;;;10.36;56.92
50105;BME280;47690;39.202;-77.198;2024-03-08T06:49:15;100767.88;;;10.36;57.12
50105;BME280;47690;39.202;-77.198;2024-03-08T06:51:43;100773.03;;;10.34;57.15
50105;BME280;47690;39.202;-77.198;2024-03-08T06:54:14;100774.72;;;10.35;56.86
50105;BME280;47690;39.202;-77.198;2024-03-08T06:56:43;100766.13;;;10.36;56.87
50105;BME280;47690;39.202;-77.198;2024-03-08T06:59:13;100758.44;;;10.35;57.07
50105;BME280;47690;39.202;-77.198;2024-03-08T07:01:42;100765.31;;;10.33;56.78
50105;BME280;47690;39.202;-77.198;2024-03-08T07:04:14;100765.34;;;10.28;56.52
50105;BME280;47690;39.202;-77.198;2024-03-08T07:06:44;100773.09;;;10.27;56.89
50105;BME280;47690;39.202;-77.198;2024-03-08T07:09:16;100766.19;;;10.27;57.28
50105;BME280;47690;39.202;-77.198;2024-03-08T07:11:46;100769.63;;;10.31;57.25
50105;BME280;47690;39.202;-77.198;2024-03-08T07:14:15;100762.72;;;10.34;57.20
50105;BME280;47690;39.202;-77.198;2024-03-08T07:16:48;100764.44;;;10.38;57.47
50105;BME280;47690;39.202;-77.198;2024-03-08T07:19:18;100755.00;;;10.37;57.40
50105;BME280;47690;39.202;-77.198;2024-03-08T07:21:47;100745.53;;;10.38;56.86
50105;BME280;47690;39.202;-77.198;2024-03-08T07:24:17;100739.56;;;10.37;57.24
50105;BME280;47690;39.202;-77.198;2024-03-08T07:26:46;100745.53;;;10.36;57.30
50105;BME280;47690;39.202;-77.198;2024-03-08T07:29:20;100750.69;;;10.38;57.08
50105;BME280;47690;39.202;-77.198;2024-03-08T07:31:49;100744.66;;;10.39;57.55
50105;BME280;47690;39.202;-77.198;2024-03-08T07:34:42;100732.66;;;10.44;57.48
50105;BME280;47690;39.202;-77.198;2024-03-08T07:37:17;100722.34;;;10.44;57.22
50105;BME280;47690;39.202;-77.198;2024-03-08T07:39:49;100731.78;;;10.44;57.05
50105;BME280;47690;39.202;-77.198;2024-03-08T07:42:19;100730.94;;;10.43;57.30
50105;BME280;47690;39.202;-77.198;2024-03-08T07:44:52;100729.22;;;10.44;57.42
50105;BME280;47690;39.202;-77.198;2024-03-08T07:47:20;100731.78;;;10.45;57.44
50105;BME280;47690;39.202;-77.198;2024-03-08T07:49:52;100738.63;;;10.46;57.49
50105;BME280;47690;39.202;-77.198;2024-03-08T07:52:22;100730.91;;;10.46;57.67
50105;BME280;47690;39.202;-77.198;2024-03-08T07:54:52;100730.91;;;10.46;57.27
50105;BME280;47690;39.202;-77.198;2024-03-08T07:57:22;100750.66;;;10.47;57.30
50105;BME280;47690;39.202;-77.198;2024-03-08T07:59:52;100747.25;;;10.45;57.17
50105;BME280;47690;39.202;-77.198;2024-03-08T08:02:20;100755.81;;;10.47;57.23
50105;BME280;47690;39.202;-77.198;2024-03-08T08:04:49;100759.28;;;10.45;57.06
50105;BME280;47690;39.202;-77.198;2024-03-08T08:07:18;100778.16;;;10.44;56.75
50105;BME280;47690;39.202;-77.198;2024-03-08T08:09:46;100778.16;;;10.39;56.47
50105;BME280;47690;39.202;-77.198;2024-03-08T08:12:17;100778.19;;;10.36;57.11
50105;BME280;47690;39.202;-77.198;2024-03-08T08:14:46;100785.91;;;10.33;56.83
50105;BME280;47690;39.202;-77.198;2024-03-08T08:17:18;100782.50;;;10.28;56.63
50105;BME280;47690;39.202;-77.198;2024-03-08T08:19:47;100776.53;;;10.21;57.06
50105;BME280;47690;39.202;-77.198;2024-03-08T08:22:17;100773.13;;;10.16;56.93
50105;BME280;47690;39.202;-77.198;2024-03-08T08:24:46;100782.59;;;10.12;57.04
50105;BME280;47690;39.202;-77.198;2024-03-08T08:27:18;100775.75;;;10.08;56.79
50105;BME280;47690;39.202;-77.198;2024-03-08T08:29:47;100776.59;;;10.07;57.04
50105;BME280;47690;39.202;-77.198;2024-03-08T08:32:19;100775.75;;;10.05;56.90
50105;BME280;47690;39.202;-77.198;2024-03-08T08:34:56;100771.44;;;10.04;56.96
50105;BME280;47690;39.202;-77.198;2024-03-08T08:37:44;100769.78;;;10.01;57.19
50105;BME280;47690;39.202;-77.198;2024-03-08T08:40:17;100761.22;;;9.97;57.22
50105;BME280;47690;39.202;-77.198;2024-03-08T08:42:52;100756.06;;;9.94;57.42
50105;BME280;47690;39.202;-77.198;2024-03-08T08:45:24;100744.94;;;9.89;57.22
50105;BME280;47690;39.202;-77.198;2024-03-08T08:47:57;100748.38;;;9.83;57.23
50105;BME280;47690;39.202;-77.198;2024-03-08T08:50:40;100748.41;;;9.82;57.55
50105;BME280;47690;39.202;-77.198;2024-03-08T08:53:12;100755.25;;;9.80;57.38
50105;BME280;47690;39.202;-77.198;2024-03-08T08:55:46;100751.81;;;9.84;57.65
50105;BME280;47690;39.202;-77.198;2024-03-08T08:58:18;100752.66;;;9.86;57.86
50105;BME280;47690;39.202;-77.198;2024-03-08T09:00:50;100750.94;;;9.88;57.50
50105;BME280;47690;39.202;-77.198;2024-03-08T09:03:46;100772.38;;;9.93;57.75
50105;BME280;47690;39.202;-77.198;2024-03-08T09:06:19;100780.97;;;9.94;57.50
50105;BME280;47690;39.202;-77.198;2024-03-08T09:08:48;100793.81;;;9.94;57.54
50105;BME280;47690;39.202;-77.198;2024-03-08T09:11:18;100800.69;;;9.95;57.91
50105;BME280;47690;39.202;-77.198;2024-03-08T09:13:47;100816.97;;;9.95;57.79
50105;BME280;47690;39.202;-77.198;2024-03-08T09:16:18;100809.25;;;9.97;57.46
50105;BME280;47690;39.202;-77.198;2024-03-08T09:18:47;100821.25;;;9.93;57.09
50105;BME280;47690;39.202;-77.198;2024-03-08T09:21:23;100831.56;;;9.93;57.23
50105;BME280;47690;39.202;-77.198;2024-03-08T09:24:10;100837.56;;;9.91;56.61
50105;BME280;47690;39.202;-77.198;2024-03-08T09:26:45;100841.88;;;9.87;56.62
50105;BME280;47690;39.202;-77.198;2024-03-08T09:29:15;100847.03;;;9.86;57.14
50105;BME280;47690;39.202;-77.198;2024-03-08T09:31:46;100843.59;;;9.83;57.41
50105;BME280;47690;39.202;-77.198;2024-03-08T09:34:18;100849.59;;;9.81;57.18
50105;BME280;47690;39.202;-77.198;2024-03-08T09:36:57;100860.75;;;9.80;57.30
50105;BME280;47690;39.202;-77.198;2024-03-08T09:39:28;100867.59;;;9.81;57.46
50105;BME280;47690;39.202;-77.198;2024-03-08T09:42:07;100871.91;;;9.82;56.97
50105;BME280;47690;39.202;-77.198;2024-03-08T09:44:49;100877.91;;;9.82;57.11
50105;BME280;47690;39.202;-77.198;2024-03-08T09:47:22;100875.34;;;9.76;57.30
50105;BME280;47690;39.202;-77.198;2024-03-08T09:49:53;100880.50;;;9.72;57.01
50105;BME280;47690;39.202;-77.198;2024-03-08T09:52:24;100886.50;;;9.67;57.68
50105;BME280;47690;39.202;-77.198;2024-03-08T09:54:53;100897.66;;;9.63;57.47
50105;BME280;47690;39.202;-77.198;2024-03-08T09:57:26;100903.63;;;9.59;57.20
50105;BME280;47690;39.202;-77.198;2024-03-08T09:59:56;100907.94;;;9.57;57.27
50105;BME280;47690;39.202;-77.198;2024-03-08T10:02:24;100913.94;;;9.56;57.40
50105;BME280;47690;39.202;-77.198;2024-03-08T10:04:53;100909.66;;;9.55;57.82
50105;BME280;47690;39.202;-77.198;2024-03-08T10:07:25;100923.38;;;9.54;58.03
50105;BME280;47690;39.202;-77.198;2024-03-08T10:09:56;100921.66;;;9.54;57.75
50105;BME280;47690;39.202;-77.198;2024-03-08T10:12:27;100929.38;;;9.53;57.74
50105;BME280;47690;39.202;-77.198;2024-03-08T10:15:01;100926.78;;;9.48;57.95
50105;BME280;47690;39.202;-77.198;2024-03-08T10:17:39;100925.94;;;9.43;58.15
50105;BME280;47690;39.202;-77.198;2024-03-08T10:20:17;100935.38;;;9.39;57.66
50105;BME280;47690;39.202;-77.198;2024-03-08T10:22:49;100926.78;;;9.34;58.09
50105;BME280;47690;39.202;-77.198;2024-03-08T10:25:37;100926.78;;;9.29;58.26
50105;BME280;47690;39.202;-77.198;2024-03-08T10:28:08;100932.78;;;9.25;57.63
50105;BME280;47690;39.202;-77.198;2024-03-08T10:30:49;100925.91;;;9.20;58.01
50105;BME280;47690;39.202;-77.198;2024-03-08T10:33:18;100936.19;;;9.18;58.36
50105;BME280;47690;39.202;-77.198;2024-03-08T10:35:48;100937.91;;;9.16;58.03
50105;BME280;47690;39.202;-77.198;2024-03-08T10:38:21;100943.03;;;9.16;58.23
50105;BME280;47690;39.202;-77.198;2024-03-08T10:40:57;100934.47;;;9.17;58.38
50105;BME280;47690;39.202;-77.198;2024-03-08T10:43:28;100939.63;;;9.17;57.98
50105;BME280;47690;39.202;-77.198;2024-03-08T10:48:57;100940.47;;;9.07;58.09
50105;BME280;47690;39.202;-77.198;2024-03-08T10:51:29;100948.16;;;9.04;57.63
50105;BME280;47690;39.202;-77.198;2024-03-08T10:54:12;100960.16;;;9.03;58.00
50105;BME280;47690;39.202;-77.198;2024-03-08T10:56:47;100955.88;;;9.02;58.27
50105;BME280;47690;39.202;-77.198;2024-03-08T10:59:19;100954.16;;;9.01;58.06
50105;BME280;47690;39.202;-77.198;2024-03-08T11:01:49;100953.28;;;8.99;58.01
50105;BME280;47690;39.202;-77.198;2024-03-08T11:04:19;100960.13;;;8.97;58.71
50105;BME280;47690;39.202;-77.198;2024-03-08T11:06:53;100954.13;;;8.98;58.27
50105;BME280;47690;39.202;-77.198;2024-03-08T11:09:39;100959.28;;;8.95;58.69
50105;BME280;47690;39.202;-77.198;2024-03-08T11:14:55;100967.84;;;8.95;58.29
50105;BME280;47690;39.202;-77.198;2024-03-08T11:20:23;100976.44;;;8.97;58.72
50105;BME280;47690;39.202;-77.198;2024-03-08T11:22:54;100967.84;;;8.95;58.07
50105;BME280;47690;39.202;-77.198;2024-03-08T11:25:41;100967.00;;;8.95;58.21
50105;BME280;47690;39.202;-77.198;2024-03-08T11:28:20;100961.84;;;8.93;58.26
50105;BME280;47690;39.202;-77.198;2024-03-08T11:33:46;100972.13;;;8.93;58.78
50105;BME280;47690;39.202;-77.198;2024-03-08T11:36:25;100970.41;;;8.92;58.92
50105;BME280;47690;39.202;-77.198;2024-03-08T11:38:54;100975.53;;;8.92;58.66
50105;BME280;47690;39.202;-77.198;2024-03-08T11:41:26;100986.69;;;8.91;59.08
50105;BME280;47690;39.202;-77.198;2024-03-08T11:44:08;100984.09;;;8.94;58.58
50105;BME280;47690;39.202;-77.198;2024-03-08T11:46:42;100991.81;;;8.91;58.55
50105;BME280;47690;39.202;-77.198;2024-03-08T11:49:17;100990.94;;;8.86;59.04
50105;BME280;47690;39.202;-77.198;2024-03-08T11:51:46;100996.94;;;8.86;59.22
50105;BME280;47690;39.202;-77.198;2024-03-08T11:54:15;100995.22;;;8.87;58.79
50105;BME280;47690;39.202;-77.198;2024-03-08T11:56:45;100997.78;;;8.87;59.03
50105;BME280;47690;39.202;-77.198;2024-03-08T11:59:16;100995.22;;;8.87;58.80
50105;BME280;47690;39.202;-77.198;2024-03-08T12:02:01;100999.50;;;8.88;58.69
50105;BME280;47690;39.202;-77.198;2024-03-08T12:04:40;101010.66;;;8.90;59.22
50105;BME280;47690;39.202;-77.198;2024-03-08T12:07:11;101015.78;;;8.93;59.17
50105;BME280;47690;39.202;-77.198;2024-03-08T12:09:43;101011.50;;;8.95;59.17
50105;BME280;47690;39.202;-77.198;2024-03-08T12:12:15;101015.81;;;9.02;59.25
50105;BME280;47690;39.202;-77.198;2024-03-08T12:14:46;101009.00;;;9.08;59.29
50105;BME280;47690;39.202;-77.198;2024-03-08T12:17:18;101005.59;;;9.15;59.09
50105;BME280;47690;39.202;-77.198;2024-03-08T12:19:47;101007.34;;;9.19;59.15
50105;BME280;47690;39.202;-77.198;2024-03-08T12:22:25;101008.19;;;9.26;59.50
50105;BME280;47690;39.202;-77.198;2024-03-08T12:25:07;101011.66;;;9.39;59.63
50105;BME280;47690;39.202;-77.198;2024-03-08T12:27:41;101015.94;;;9.41;59.19
50105;BME280;47690;39.202;-77.198;2024-03-08T12:30:27;101020.25;;;9.49;59.92
50105;BME280;47690;39.202;-77.198;2024-03-08T12:33:12;101038.28;;;9.60;59.89
50105;BME280;47690;39.202;-77.198;2024-03-08T12:35:54;101039.97;;;9.65;59.42
50105;BME280;47690;39.202;-77.198;2024-03-08T12:38:44;101040.88;;;9.78;59.31
50105;BME280;47690;39.202;-77.198;2024-03-08T12:41:17;101043.44;;;9.91;59.50
50105;BME280;47690;39.202;-77.198;2024-03-08T12:43:47;101043.47;;;10.05;59.15
50105;BME280;47690;39.202;-77.198;2024-03-08T12:46:21;101050.28;;;10.24;59.23
50105;BME280;47690;39.202;-77.198;2024-03-08T12:49:11;101055.47;;;10.48;59.32
50105;BME280;47690;39.202;-77.198;2024-03-08T12:51:49;101061.41;;;10.72;58.80
50105;BME280;47690;39.202;-77.198;2024-03-08T12:54:22;101060.50;;;10.91;58.64
50105;BME280;47690;39.202;-77.198;2024-03-08T12:56:53;101044.97;;;11.07;58.89
50105;BME280;47690;39.202;-77.198;2024-03-08T12:59:23;101055.22;;;11.21;58.70
50105;BME280;47690;39.202;-77.198;2024-03-08T13:01:52;101062.94;;;11.29;58.72
50105;BME280;47690;39.202;-77.198;2024-03-08T13:04:24;101071.50;;;11.31;58.52
50105;BME280;47690;39.202;-77.198;2024-03-08T13:06:54;101080.13;;;11.30;58.29
50105;BME280;47690;39.202;-77.198;2024-03-08T13:09:24;101086.16;;;11.30;58.20
50105;BME280;47690;39.202;-77.198;2024-03-08T13:11:55;101074.91;;;11.39;58.23